1996 Severe Tropical Cyclone OLIVIA (1996095S09133)


IBTrACS version v04r00. Visit IBTrACS website for data access.
Please direct all questions to the IBTrACS Q and A forum

Storm track - Intensity - Wind Radii - Intensity Data - Source Data - All data

Summary Information

Satellite image near maximum intensity
Storm ID 1996095S09133
Start Apr 3 12Z
Landfall Apr 10 12Z
Max Intensity 125 kt (Apr 10 00Z), 925 mb (Apr 9 13Z)
End Apr 12 04Z
ATCF IDs SH251996
Track status Best track data.

Storm track plot

Map of storm track

Intensity plots

Map of storm track

Radial wind information

Map of storm track

Position and Intensity Table

BASIN ISO_TIME_________ NATURE LAT LON WMO WIND WMO PRES USA WIND BOM WIND BOM PRES NEUMANN WIND
degrees north degrees east kts mb kts kts mb kts
SI 1996-04-03 12:00:00 TS -9.00 133.00 20 20
SI 13:00:00 TS -8.87 132.91 20 1004 20 20 1004 20
SI 15:00:00 TS -8.82 132.68 20 21 1003 20
SI 18:00:00 TS -8.76 132.25 20 24 1002 20
SI 19:00:00 TS -8.74 132.08 25 1002 20 25 1002 20
SI 21:00:00 TS -8.74 131.65 20 25 1002 20
SI 1996-04-04 00:00:00 TS -8.78 130.97 20 25 1002 20
SI 01:00:00 TS -8.82 130.78 25 1002 20 25 1002 20
SI 03:00:00 TS -8.92 130.44 20 25 1001 20
SI 06:00:00 TS -9.11 129.99 20 25 1000 20
SI 07:00:00 TS -9.17 129.83 25 1000 20 25 1000 20
SI 09:00:00 TS -9.28 129.47 22 25 1000 22
SI 12:00:00 TS -9.51 128.99 25 25 1000 25
SI 13:00:00 TS -9.62 128.86 25 1000 25 25 1000 25
SI 15:00:00 TS -9.89 128.64 25 25 1000 25
SI 18:00:00 TS -10.30 128.41 25 25 1000 25
SI 19:00:00 TS -10.41 128.37 25 1000 25 25 1000 25
SI 21:00:00 TS -10.58 128.31 27 26 998 27
SI 1996-04-05 00:00:00 TS -10.82 128.26 30 29 996 30
SI 01:00:00 TS -10.91 128.22 30 996 31 30 996 31
SI 03:00:00 TS -11.12 128.15 35 30 996 35
SI 06:00:00 TS -11.45 128.00 40 30 996 40
SI 07:00:00 TS -11.56 127.96 30 996 40 30 996 40
SI 09:00:00 TS -11.77 127.86 42 30 996 42
SI 12:00:00 TS -12.02 127.64 45 30 996 45
SI 13:00:00 TS -12.09 127.55 30 996 45 30 996 45
SI 15:00:00 TS -12.21 127.32 45 30 996 45
SI 18:00:00 TS -12.36 126.91 45 30 996 45
SI 19:00:00 TS -12.41 126.77 30 996 45 30 996 45
SI 21:00:00 TS -12.51 126.45 45 33 994 45
SI 1996-04-06 00:00:00 TS -12.66 125.95 45 38 991 45
SI 01:00:00 TS -12.71 125.79 40 990 45 40 990 45
SI 03:00:00 TS -12.83 125.46 45 40 990 45
SI 04:00:00 TS -12.88 125.29 40 990 45 40 990 45
SI 06:00:00 TS -12.97 124.96 45 46 986 45
SI 07:00:00 TS -13.01 124.78 50 985 45 50 985 45
SI 09:00:00 TS -13.10 124.42 45 50 985 45
SI 10:00:00 TS -13.14 124.24 50 985 45 50 985 45
SI 12:00:00 TS -13.22 123.89 45 50 985 45
SI 13:00:00 TS -13.26 123.72 50 985 45 50 985 45
SI 15:00:00 TS -13.33 123.36 47 50 985 47
SI 16:00:00 TS -13.36 123.19 50 985 48 50 985 48
SI 18:00:00 TS -13.42 122.85 50 50 985 50
SI 19:00:00 TS -13.46 122.69 50 985 50 50 985 50
SI 21:00:00 TS -13.53 122.36 52 50 985 52
SI 22:00:00 TS -13.57 122.19 50 985 53 50 985 53
SI 1996-04-07 00:00:00 TS -13.62 121.86 55 50 985 55
SI 01:00:00 TS -13.64 121.68 50 985 55 50 985 55
SI 03:00:00 TS -13.67 121.30 55 53 981 55
SI 04:00:00 TS -13.67 121.10 55 980 55 55 980 55
SI 06:00:00 TS -13.69 120.73 55 55 980 55
SI 07:00:00 TS -13.70 120.56 55 980 55 55 980 55
SI 09:00:00 TS -13.70 120.26 57 58 976 57
SI 10:00:00 TS -13.70 120.12 60 975 58 60 975 58
SI 12:00:00 TS -13.70 119.84 60 60 975 60
SI 13:00:00 TS -13.70 119.70 60 975 60 60 975 60
SI 15:00:00 TS -13.70 119.43 62 60 975 62
SI 16:00:00 TS -13.70 119.30 60 975 63 60 975 63
SI 18:00:00 TS -13.70 119.04 65 63 971 65
SI 19:00:00 TS -13.70 118.92 65 970 65 65 970 65
SI 21:00:00 TS -13.69 118.70 67 65 970 67
SI 22:00:00 TS -13.69 118.59 65 970 68 65 970 68
SI 1996-04-08 00:00:00 TS -13.70 118.37 70 68 966 70
SI 01:00:00 TS -13.71 118.27 70 965 70 70 965 70
SI 03:00:00 TS -13.74 118.11 72 70 965 72
SI 04:00:00 TS -13.77 118.04 70 965 73 70 965 73
SI 06:00:00 TS -13.82 117.89 75 70 965 75
SI 07:00:00 TS -13.84 117.82 70 965 75 70 965 75
SI 09:00:00 TS -13.89 117.68 75 73 961 75
SI 10:00:00 TS -13.93 117.62 75 960 75 75 960 75
SI 12:00:00 TS -14.04 117.49 75 75 960 75
SI 13:00:00 TS -14.12 117.42 75 960 75 75 960 75
SI 15:00:00 TS -14.30 117.29 75 75 960 75
SI 16:00:00 TS -14.39 117.22 75 960 75 75 960 75
SI 18:00:00 TS -14.58 117.11 75 78 956 75
SI 19:00:00 TS -14.66 117.06 80 955 75 80 955 75
SI 21:00:00 TS -14.81 116.93 77 83 951 77
SI 22:00:00 TS -14.89 116.86 85 950 78 85 950 78
SI 1996-04-09 00:00:00 TS -15.06 116.73 80 88 946 80
SI 01:00:00 TS -15.16 116.65 90 945 80 90 945 80
SI 03:00:00 TS -15.37 116.46 82 93 941 82
SI 04:00:00 TS -15.49 116.35 95 940 83 95 940 83
SI 06:00:00 TS -15.75 116.14 85 95 936 85
SI 07:00:00 TS -15.88 116.04 95 935 87 95 935 87
SI 09:00:00 TS -16.13 115.84 92 98 931 92
SI 10:00:00 TS -16.27 115.74 100 930 95 100 930 95
SI 12:00:00 TS -16.58 115.51 100 103 926 100
SI 13:00:00 TS -16.74 115.38 105 925 102 105 925 102
SI 15:00:00 TS -17.04 115.16 107 105 925 107
SI 16:00:00 TS -17.20 115.06 105 925 110 105 925 110
SI 18:00:00 TS -17.52 114.88 115 105 925 115
SI 19:00:00 TS -17.69 114.83 105 925 116 105 925 116
SI 21:00:00 TS -18.01 114.78 120 105 925 120
SI 22:00:00 TS -18.19 114.78 105 925 121 105 925 121
SI 1996-04-10 00:00:00 TS -18.56 114.79 125 105 925 125
SI 01:00:00 TS -18.75 114.81 105 925 125 105 925 125
SI 03:00:00 TS -19.12 114.89 125 105 925 125
SI 04:00:00 TS -19.31 114.95 105 925 125 105 925 125
SI 06:00:00 TS -19.67 115.11 125 105 925 125
SI 07:00:00 TS -19.87 115.21 105 925 125 105 925 124
SI 09:00:00 TS -20.32 115.45 125 105 925 122
SI 10:00:00 TS -20.56 115.60 105 925 125 105 925 121
SI 12:00:00 TS -21.10 115.94 125 105 928 120
SI 13:00:00 TS -21.38 116.11 105 930 120 105 930 116
SI 15:00:00 TS -21.95 116.49 112 95 939 110
SI 16:00:00 TS -22.24 116.68 90 945 108 90 945 106
SI 18:00:00 TS -22.86 117.09 100 73 961 100
SI 19:00:00 TS -23.15 117.28 65 970 95 65 970 95
SI 21:00:00 TS -23.73 117.67 87 61 973 87
SI 22:00:00 TS -24.02 117.87 60 975 83 60 975 83
SI 1996-04-11 00:00:00 TS -24.60 118.30 75 56 978 75
SI 01:00:00 TS -24.89 118.52 55 980 69 55 980 69
SI 03:00:00 TS -25.48 119.00 60 55 980 60
SI 04:00:00 TS -25.78 119.27 55 980 54 55 980 54
SI 06:00:00 TS -26.40 119.91 45 48 983 45
SI 07:00:00 TS -26.73 120.28 45 985 41 45 985 41
SI 09:00:00 TS -27.40 121.14 35 41 988 35
SI 10:00:00 TS -27.73 121.60 40 990 31 40 990 31
SI 12:00:00 TS -28.35 122.55 25 40 990 25
SI 13:00:00 TS -28.62 123.02 40 990 24 40 990 24
SI 15:00:00 TS -29.10 124.06 22 40 990 22
SI 16:00:00 TS -29.32 124.61 40 990 21 40 990 21
SI 18:00:00 TS -29.73 125.78 20 36 993 20
SI 19:00:00 TS -29.95 126.40 35 995 19 35 995 19
SI 21:00:00 TS -30.50 127.77 17 35 995 17
SI 22:00:00 TS -30.91 128.47 35 995 16 35 995 16
SI 1996-04-12 00:00:00 TS -31.79 129.76 15 31 995 15
SI 01:00:00 NR -32.80 130.20 30 995 30 995
SI 03:00:00 NR -33.48 131.33 30 995
SI 04:00:00 NR -33.80 131.90 30 995 30 995

Source Information

Agency Information
USA bsh251996.txt
TOKYO
CMA
HKO
NEWDELHI
REUNION
BOM IDCKMSTM0S.csv:Line=18828:OLIVIA
NADI
WELLINGTON
DS824
TD9636
TD9635
NEUMANN tracks.sh:Storm=1061:OLIVIA:BSH251996:JTWC&BM850
MLC

All available IBTrACS Data

SEASON BASIN SUBBASIN ISO_TIME_________ NATURE LAT LON WMO WIND WMO PRES WMO AGENCY DIST2LAND LANDFALL IFLAG USA AGENCY USA ATCF_ID USA LAT USA LON USA WIND USA SSHS BOM LAT BOM LON BOM TYPE BOM WIND BOM PRES BOM CI BOM RMW BOM ROCI BOM EYE BOM PRES_METHOD NEUMANN LAT NEUMANN LON NEUMANN CLASS NEUMANN WIND BOM GUST BOM GUST_PER STORM SPEED STORM DIR
Year degrees north degrees east kts mb km km degrees north degrees east kts 1 degrees north degrees east kts mb 1 nmile nmile nmile degrees north degrees east kts kts second kts degrees
1996 SI WA 1996-04-03 12:00:00 TS -9.00 133.00 214 199 O___________O_ jtwc_sh SH251996 -9.00 133.00 20 -1 -9.00 133.00 TC 20 9 326
1996 SI WA 13:00:00 TS -8.87 132.91 20 1004 bom 199 175 P_____O_____P_ SH251996 -8.97 132.89 20 -1 -8.50 133.00 20 20 1004 1.00 -8.97 132.89 TC 20 45 45 7 301
1996 SI WA 15:00:00 TS -8.82 132.68 175 141 P_____P_____P_ SH251996 -8.90 132.64 20 -1 -8.56 132.81 20 21 1003 -8.90 132.64 TC 20 8 280
1996 SI WA 18:00:00 TS -8.76 132.25 141 117 O_____P_____O_ jtwc_sh SH251996 -8.80 132.20 20 -1 -8.66 132.40 20 24 1002 -8.80 132.20 TC 20 9 277
1996 SI WA 19:00:00 TS -8.74 132.08 25 1002 bom 117 89 P_____O_____P_ SH251996 -8.77 132.02 20 -1 -8.70 132.20 20 25 1002 1.50 -8.77 132.02 TC 20 45 45 12 272
1996 SI WA 21:00:00 TS -8.74 131.65 89 78 P_____P_____P_ SH251996 -8.71 131.62 20 -1 -8.79 131.71 20 25 1002 -8.71 131.62 TC 20 13 268
1996 SI WA 1996-04-04 00:00:00 TS -8.78 130.97 90 90 O_____P_____O_ jtwc_sh SH251996 -8.70 131.00 20 -1 -8.94 130.92 20 25 1002 -8.70 131.00 TC 20 13 265
1996 SI WA 01:00:00 TS -8.82 130.78 25 1002 bom 95 99 P_____O_____P_ SH251996 -8.72 130.81 20 -1 -9.00 130.70 20 25 1002 1.50 -8.72 130.81 TC 20 45 45 11 255
1996 SI WA 03:00:00 TS -8.92 130.44 126 126 P_____P_____P_ SH251996 -8.81 130.45 20 -1 -9.13 130.43 20 25 1001 -8.81 130.45 TC 20 10 249
1996 SI WA 06:00:00 TS -9.11 129.99 172 172 O_____P_____O_ jtwc_sh SH251996 -9.00 129.90 20 -1 -9.33 130.18 20 25 1000 -9.00 129.90 TC 20 10 248
1996 SI WA 07:00:00 TS -9.17 129.83 25 1000 bom 196 196 P_____O_____P_ SH251996 -9.05 129.69 20 -1 -9.40 130.10 20 25 1000 2.00 -9.05 129.69 TC 20 45 45 11 252
1996 SI WA 09:00:00 TS -9.28 129.47 228 223 P_____P_____P_ SH251996 -9.16 129.27 22 -1 -9.52 129.88 20 25 1000 -9.16 129.27 TC 22 11 247
1996 SI WA 12:00:00 TS -9.51 128.99 223 214 O_____P_____O_ jtwc_sh SH251996 -9.40 128.70 25 -1 -9.72 129.58 20 25 1000 -9.40 128.70 TC 25 10 240
1996 SI WA 13:00:00 TS -9.62 128.86 25 1000 bom 221 212 P_____O_____P_ SH251996 -9.53 128.54 25 -1 -9.80 129.50 20 25 1000 2.00 -9.53 128.54 TC 25 45 45 10 223
1996 SI WA 15:00:00 TS -9.89 128.64 219 219 P_____P_____P_ SH251996 -9.84 128.27 25 -1 -9.98 129.38 20 25 1000 -9.84 128.27 TC 25 10 213
1996 SI WA 18:00:00 TS -10.30 128.41 229 222 O_____P_____O_ jtwc_sh SH251996 -10.30 128.00 25 -1 -10.29 129.24 20 25 1000 -10.30 128.00 TC 25 9 207
1996 SI WA 19:00:00 TS -10.41 128.37 25 1000 bom 222 220 P_____O_____P_ SH251996 -10.41 127.95 25 -1 -10.40 129.20 20 25 1000 2.00 -10.41 127.95 TC 25 45 45 6 201
1996 SI WA 21:00:00 TS -10.58 128.31 220 211 P_____P_____P_ SH251996 -10.59 127.90 27 -1 -10.57 129.12 20 26 998 -10.59 127.90 TC 27 5 195
1996 SI WA 1996-04-05 00:00:00 TS -10.82 128.26 211 211 O_____P_____O_ jtwc_sh SH251996 -10.80 127.90 30 -1 -10.87 128.97 20 29 996 -10.80 127.90 TC 30 5 193
1996 SI WA 01:00:00 TS -10.91 128.22 30 996 bom 218 212 P_____O_____P_ SH251996 -10.87 127.89 31 -1 -11.00 128.90 20 30 996 2.50 5 -10.87 127.89 TC 31 45 45 6 200
1996 SI WA 03:00:00 TS -11.12 128.15 222 219 P_____P_____P_ SH251996 -10.99 127.86 35 0 -11.37 128.73 20 30 996 -10.99 127.86 TC 35 7 202
1996 SI WA 06:00:00 TS -11.45 128.00 229 228 O_____P_____O_ jtwc_sh SH251996 -11.20 127.80 40 0 -11.94 128.41 20 30 996 -11.20 127.80 TC 40 7 203
1996 SI WA 07:00:00 TS -11.56 127.96 30 996 bom 229 239 P_____O_____P_ SH251996 -11.29 127.79 40 0 -12.10 128.30 20 30 996 2.50 5 -11.29 127.79 TC 40 45 45 7 204
1996 SI WA 09:00:00 TS -11.77 127.86 239 211 P_____P_____P_ SH251996 -11.50 127.74 42 0 -12.30 128.08 20 30 996 -11.50 127.74 TC 42 7 214
1996 SI WA 12:00:00 TS -12.02 127.64 208 195 O_____P_____O_ jtwc_sh SH251996 -11.80 127.60 45 0 -12.46 127.72 20 30 996 -11.80 127.60 TC 45 7 224
1996 SI WA 13:00:00 TS -12.09 127.55 30 996 bom 195 180 P_____O_____P_ SH251996 -11.88 127.52 45 0 -12.50 127.60 20 30 996 2.50 5 -11.88 127.52 TC 45 45 45 7 239
1996 SI WA 15:00:00 TS -12.21 127.32 180 156 P_____P_____P_ SH251996 -12.01 127.31 45 0 -12.59 127.35 20 30 996 -12.01 127.31 TC 45 8 246
1996 SI WA 18:00:00 TS -12.36 126.91 156 156 O_____P_____O_ jtwc_sh SH251996 -12.20 126.90 45 0 -12.68 126.94 20 30 996 -12.20 126.90 TC 45 9 249
1996 SI WA 19:00:00 TS -12.41 126.77 30 996 bom 157 149 P_____O_____P_ SH251996 -12.27 126.75 45 0 -12.70 126.80 20 30 996 2.50 5 -12.27 126.75 TC 45 45 45 10 251
1996 SI WA 21:00:00 TS -12.51 126.45 151 145 P_____P_____P_ SH251996 -12.40 126.42 45 0 -12.73 126.51 20 33 994 -12.40 126.42 TC 45 10 253
1996 SI WA 1996-04-06 00:00:00 TS -12.66 125.95 145 145 O_____P_____O_ jtwc_sh SH251996 -12.60 125.90 45 0 -12.78 126.06 20 38 991 -12.60 125.90 TC 45 10 253
1996 SI WA 01:00:00 TS -12.71 125.79 40 990 bom 149 141 P_____O_____P_ SH251996 -12.67 125.74 45 0 -12.80 125.90 30 40 990 3.00 19 133 5 -12.67 125.74 TC 45 55 55 10 250
1996 SI WA 03:00:00 TS -12.83 125.46 149 144 P_____P_____P_ SH251996 -12.81 125.41 45 0 -12.87 125.57 30 40 990 19 133 -12.81 125.41 TC 45 10 251
1996 SI WA 04:00:00 TS -12.88 125.29 40 990 bom 150 150 P_____O_____P_ SH251996 -12.87 125.24 45 0 -12.90 125.40 30 40 990 3.00 19 133 5 -12.87 125.24 TC 45 55 55 10 255
1996 SI WA 06:00:00 TS -12.97 124.96 159 159 O_____P_____O_ jtwc_sh SH251996 -13.00 124.90 45 0 -12.90 125.07 30 46 986 16 150 -13.00 124.90 TC 45 10 256
1996 SI WA 07:00:00 TS -13.01 124.78 50 985 bom 169 169 P_____O_____P_ SH251996 -13.06 124.72 45 0 -12.90 124.90 30 50 985 3.50 15 160 5 -13.06 124.72 TC 45 69 69 11 256
1996 SI WA 09:00:00 TS -13.10 124.42 186 186 P_____P_____P_ SH251996 -13.16 124.35 45 0 -12.96 124.57 30 50 985 15 160 -13.16 124.35 TC 45 11 255
1996 SI WA 10:00:00 TS -13.14 124.24 50 985 bom 199 190 P_____O_____P_ SH251996 -13.21 124.16 45 0 -13.00 124.40 30 50 985 3.50 15 160 5 -13.21 124.16 TC 45 69 69 11 256
1996 SI WA 12:00:00 TS -13.22 123.89 210 210 O_____P_____O_ jtwc_sh SH251996 -13.30 123.80 45 0 -13.07 124.07 30 50 985 15 160 -13.30 123.80 TC 45 10 257
1996 SI WA 13:00:00 TS -13.26 123.72 50 985 bom 217 217 P_____O_____P_ SH251996 -13.34 123.63 45 0 -13.10 123.90 30 50 985 3.50 15 160 5 -13.34 123.63 TC 45 69 69 11 259
1996 SI WA 15:00:00 TS -13.33 123.36 242 242 P_____P_____P_ SH251996 -13.41 123.29 47 0 -13.17 123.50 30 50 985 15 160 -13.41 123.29 TC 47 11 259
1996 SI WA 16:00:00 TS -13.36 123.19 50 985 bom 254 254 P_____O_____P_ SH251996 -13.44 123.13 48 0 -13.20 123.30 30 50 985 3.50 15 160 5 -13.44 123.13 TC 48 69 69 10 259
1996 SI WA 18:00:00 TS -13.42 122.85 282 282 O_____P_____O_ jtwc_sh SH251996 -13.50 122.80 50 0 -13.27 122.96 30 50 985 15 160 -13.50 122.80 TC 50 10 258
1996 SI WA 19:00:00 TS -13.46 122.69 50 985 bom 295 295 P_____O_____P_ SH251996 -13.54 122.64 50 0 -13.30 122.80 30 50 985 3.50 15 160 5 -13.54 122.64 TC 50 69 69 10 257
1996 SI WA 21:00:00 TS -13.53 122.36 318 318 P_____P_____P_ SH251996 -13.61 122.31 52 0 -13.37 122.47 30 50 985 15 160 -13.61 122.31 TC 52 10 257
1996 SI WA 22:00:00 TS -13.57 122.19 50 985 bom 325 325 P_____O_____P_ SH251996 -13.65 122.14 53 0 -13.40 122.30 30 50 985 3.50 15 160 5 -13.65 122.14 TC 53 69 69 10 260
1996 SI WA 1996-04-07 00:00:00 TS -13.62 121.86 341 341 O_____P_____O_ jtwc_sh SH251996 -13.70 121.80 55 0 -13.47 121.97 30 50 985 15 160 -13.70 121.80 TC 55 10 262
1996 SI WA 01:00:00 TS -13.64 121.68 50 985 bom 349 343 P_____O_____P_ SH251996 -13.71 121.62 55 0 -13.50 121.80 30 50 985 3.50 15 160 5 -13.71 121.62 TC 55 69 69 11 265
1996 SI WA 03:00:00 TS -13.67 121.30 357 357 P_____P_____P_ SH251996 -13.72 121.24 55 0 -13.57 121.41 30 53 981 15 177 -13.72 121.24 TC 55 11 267
1996 SI WA 04:00:00 TS -13.67 121.10 55 980 bom 368 368 P_____O_____P_ SH251996 -13.71 121.06 55 0 -13.60 121.20 30 55 980 4.00 15 187 5 -13.71 121.06 TC 55 75 75 11 267
1996 SI WA 06:00:00 TS -13.69 120.73 381 380 O_____P_____O_ jtwc_sh SH251996 -13.70 120.70 55 0 -13.67 120.78 30 55 980 17 204 -13.70 120.70 TC 55 11 267
1996 SI WA 07:00:00 TS -13.70 120.56 55 980 bom 380 380 P_____O_____P_ SH251996 -13.70 120.54 55 0 -13.70 120.60 30 55 980 4.00 19 214 5 -13.70 120.54 TC 55 75 75 9 269
1996 SI WA 09:00:00 TS -13.70 120.26 381 381 P_____P_____P_ SH251996 -13.70 120.23 57 0 -13.71 120.32 30 58 976 19 214 -13.70 120.23 TC 57 8 270
1996 SI WA 10:00:00 TS -13.70 120.12 60 975 bom 383 383 P_____O_____P_ SH251996 -13.70 120.08 58 0 -13.70 120.20 30 60 975 4.00 19 214 5 -13.70 120.08 TC 58 84 84 8 270
1996 SI WA 12:00:00 TS -13.70 119.84 388 388 O_____P_____O_ jtwc_sh SH251996 -13.70 119.80 60 0 -13.70 119.93 30 60 975 16 214 -13.70 119.80 TC 60 8 270
1996 SI WA 13:00:00 TS -13.70 119.70 60 975 bom 390 390 P_____O_____P_ SH251996 -13.70 119.66 60 0 -13.70 119.80 30 60 975 4.00 15 214 5 -13.70 119.66 TC 60 84 84 8 270
1996 SI WA 15:00:00 TS -13.70 119.43 399 399 P_____P_____P_ SH251996 -13.70 119.38 62 0 -13.70 119.53 30 60 975 15 214 -13.70 119.38 TC 62 8 270
1996 SI WA 16:00:00 TS -13.70 119.30 60 975 bom 402 402 P_____O_____P_ SH251996 -13.70 119.25 63 0 -13.70 119.40 30 60 975 4.00 15 214 5 -13.70 119.25 TC 63 84 84 7 270
1996 SI WA 18:00:00 TS -13.70 119.04 413 413 O_____P_____O_ jtwc_sh SH251996 -13.70 119.00 65 1 -13.70 119.13 30 63 971 15 231 -13.70 119.00 TC 65 7 270
1996 SI WA 19:00:00 TS -13.70 118.92 65 970 bom 416 416 P_____O_____P_ SH251996 -13.70 118.89 65 1 -13.70 119.00 40 65 970 4.50 15 241 5 -13.70 118.89 TC 65 89 89 7 271
1996 SI WA 21:00:00 TS -13.69 118.70 424 424 P_____P_____P_ SH251996 -13.69 118.68 67 1 -13.70 118.73 40 65 970 15 241 -13.69 118.68 TC 67 7 271
1996 SI WA 22:00:00 TS -13.69 118.59 65 970 bom 428 428 P_____O_____P_ SH251996 -13.69 118.58 68 1 -13.70 118.60 40 65 970 4.50 15 241 5 -13.69 118.58 TC 68 89 89 6 270
1996 SI WA 1996-04-08 00:00:00 TS -13.70 118.37 438 438 O_____P_____O_ jtwc_sh SH251996 -13.70 118.40 70 1 -13.69 118.32 40 68 966 15 258 -13.70 118.40 TC 70 6 268
1996 SI WA 01:00:00 TS -13.71 118.27 70 965 bom 443 443 P_____O_____P_ SH251996 -13.71 118.31 70 1 -13.70 118.20 40 70 965 4.50 15 268 5 -13.71 118.31 TC 70 99 99 5 260
1996 SI WA 03:00:00 TS -13.74 118.11 453 453 P_____P_____P_ SH251996 -13.73 118.14 72 1 -13.76 118.06 40 70 965 15 285 -13.73 118.14 TC 72 5 255
1996 SI WA 04:00:00 TS -13.77 118.04 70 965 bom 468 468 P_____O_____P_ SH251996 -13.75 118.05 73 1 -13.80 118.00 40 70 965 4.50 15 295 5 -13.75 118.05 TC 73 99 99 5 250
1996 SI WA 06:00:00 TS -13.82 117.89 474 474 O_____P_____O_ jtwc_sh SH251996 -13.80 117.90 75 1 -13.87 117.87 40 70 965 15 295 -13.80 117.90 TC 75 4 250
1996 SI WA 07:00:00 TS -13.84 117.82 70 965 bom 480 480 P_____O_____P_ SH251996 -13.82 117.83 75 1 -13.90 117.80 40 70 965 4.50 15 295 5 -13.82 117.83 TC 75 99 99 4 250
1996 SI WA 09:00:00 TS -13.89 117.68 494 494 P_____P_____P_ SH251996 -13.86 117.69 75 1 -13.96 117.67 40 73 961 15 295 -13.86 117.69 TC 75 4 246
1996 SI WA 10:00:00 TS -13.93 117.62 75 960 bom 497 497 P_____O_____P_ SH251996 -13.90 117.63 75 1 -14.00 117.60 40 75 960 4.50 15 295 5 -13.90 117.63 TC 75 104 104 5 232
1996 SI WA 12:00:00 TS -14.04 117.49 512 512 O_____P_____O_ jtwc_sh SH251996 -14.00 117.50 75 1 -14.13 117.47 40 75 960 15 295 -14.00 117.50 TC 75 5 225
1996 SI WA 13:00:00 TS -14.12 117.42 75 960 bom 526 526 P_____O_____P_ SH251996 -14.08 117.43 75 1 -14.20 117.40 40 75 960 4.50 15 295 5 -14.08 117.43 TC 75 104 104 6 218
1996 SI WA 15:00:00 TS -14.30 117.29 551 551 P_____P_____P_ SH251996 -14.28 117.30 75 1 -14.33 117.26 40 75 960 15 295 -14.28 117.30 TC 75 7 216
1996 SI WA 16:00:00 TS -14.39 117.22 75 960 bom 565 565 P_____O_____P_ SH251996 -14.39 117.23 75 1 -14.40 117.20 40 75 960 4.50 15 295 5 -14.39 117.23 TC 75 104 104 7 211
1996 SI WA 18:00:00 TS -14.58 117.11 590 590 O_____P_____O_ jtwc_sh SH251996 -14.60 117.10 75 1 -14.53 117.14 40 78 956 11 295 -14.60 117.10 TC 75 6 210
1996 SI WA 19:00:00 TS -14.66 117.06 80 955 bom 600 604 P_____O_____P_ SH251996 -14.69 117.04 75 1 -14.60 117.10 40 80 955 5.00 10 295 5 5 -14.69 117.04 TC 75 110 110 6 217
1996 SI WA 21:00:00 TS -14.81 116.93 619 619 P_____P_____P_ SH251996 -14.85 116.91 77 1 -14.73 116.97 40 83 951 10 295 -14.85 116.91 TC 77 6 220
1996 SI WA 22:00:00 TS -14.89 116.86 85 950 bom 626 619 P_____O_____P_ SH251996 -14.93 116.84 78 1 -14.80 116.90 40 85 950 5.00 10 295 5 5 -14.93 116.84 TC 78 119 119 6 217
1996 SI WA 1996-04-09 00:00:00 TS -15.06 116.73 611 603 O_____P_____O_ jtwc_sh SH251996 -15.10 116.70 80 1 -14.99 116.78 40 88 946 10 295 -15.10 116.70 TC 80 7 216
1996 SI WA 01:00:00 TS -15.16 116.65 90 945 bom 603 582 P_____O_____P_ SH251996 -15.19 116.62 80 1 -15.10 116.70 40 90 945 5.00 10 295 5 -15.19 116.62 TC 80 124 124 8 220
1996 SI WA 03:00:00 TS -15.37 116.46 582 571 P_____P_____P_ SH251996 -15.38 116.46 82 1 -15.35 116.44 40 93 941 10 295 -15.38 116.46 TC 82 9 221
1996 SI WA 04:00:00 TS -15.49 116.35 95 940 bom 571 550 P_____O_____P_ SH251996 -15.48 116.38 83 2 -15.50 116.30 40 95 940 5.00 10 295 5 5 -15.48 116.38 TC 83 135 135 10 219
1996 SI WA 06:00:00 TS -15.75 116.14 551 529 O_____P_____O_ jtwc_sh SH251996 -15.70 116.20 85 2 -15.84 116.03 40 95 936 13 295 -15.70 116.20 TC 85 10 218
1996 SI WA 07:00:00 TS -15.88 116.04 95 935 bom 531 510 P_____O_____P_ SH251996 -15.82 116.11 87 2 -16.00 115.90 40 95 935 5.50 15 295 5 5 -15.82 116.11 TC 87 135 135 10 216
1996 SI WA 09:00:00 TS -16.13 115.84 512 492 P_____P_____P_ SH251996 -16.07 115.91 92 2 -16.26 115.70 40 98 931 15 277 -16.07 115.91 TC 92 10 216
1996 SI WA 10:00:00 TS -16.27 115.74 100 930 bom 492 465 P_____O_____P_ SH251996 -16.21 115.81 95 2 -16.40 115.60 40 100 930 6.00 15 268 5 5 -16.21 115.81 TC 95 139 139 11 216
1996 SI WA 12:00:00 TS -16.58 115.51 465 457 O_____P_____O_ jtwc_sh SH251996 -16.50 115.60 100 3 -16.74 115.32 40 103 926 15 268 -16.50 115.60 TC 100 12 217
1996 SI WA 13:00:00 TS -16.74 115.38 105 925 bom 457 432 P_____O_____P_ SH251996 -16.65 115.47 102 3 -16.90 115.20 40 105 925 6.00 15 268 5 5 -16.65 115.47 TC 102 145 145 11 216
1996 SI WA 15:00:00 TS -17.04 115.16 432 415 P_____P_____P_ SH251996 -16.98 115.21 107 3 -17.17 115.06 40 105 925 15 268 -16.98 115.21 TC 107 11 213
1996 SI WA 16:00:00 TS -17.20 115.06 105 925 bom 415 395 P_____O_____P_ SH251996 -17.15 115.09 110 3 -17.30 115.00 40 105 925 6.00 15 268 5 5 -17.15 115.09 TC 110 145 145 11 209
1996 SI WA 18:00:00 TS -17.52 114.88 395 380 O_____P_____O_ jtwc_sh SH251996 -17.50 114.90 115 4 -17.57 114.85 40 105 925 15 268 -17.50 114.90 TC 115 11 205
1996 SI WA 19:00:00 TS -17.69 114.83 105 925 bom 380 352 P_____O_____P_ SH251996 -17.68 114.84 116 4 -17.70 114.80 40 105 925 6.00 15 268 7 5 -17.68 114.84 TC 116 145 145 10 191
1996 SI WA 21:00:00 TS -18.01 114.78 352 334 P_____P_____P_ SH251996 -18.04 114.77 120 4 -17.95 114.79 40 105 925 15 268 -18.04 114.77 TC 120 10 185
1996 SI WA 22:00:00 TS -18.19 114.78 105 925 bom 334 305 P_____O_____P_ SH251996 -18.23 114.77 121 4 -18.10 114.80 40 105 925 6.00 15 268 7 5 -18.23 114.77 TC 121 145 145 11 0
1996 SI WA 1996-04-10 00:00:00 TS -18.56 114.79 296 276 O_____P_____O_ jtwc_sh SH251996 -18.60 114.80 125 4 -18.49 114.78 40 105 925 15 250 -18.60 114.80 TC 125 11 179
1996 SI WA 01:00:00 TS -18.75 114.81 105 925 bom 276 242 P_____O_____P_ SH251996 -18.78 114.81 125 4 -18.70 114.80 40 105 925 6.00 15 241 7 5 -18.78 114.81 TC 125 145 145 11 171
1996 SI WA 03:00:00 TS -19.12 114.89 242 218 P_____P_____P_ SH251996 -19.13 114.88 125 4 -19.11 114.92 40 105 925 15 241 -19.13 114.88 TC 125 12 166
1996 SI WA 04:00:00 TS -19.31 114.95 105 925 bom 218 185 P_____O_____P_ SH251996 -19.31 114.93 125 4 -19.30 115.00 40 105 925 6.00 15 241 11 5 -19.31 114.93 TC 125 145 145 12 160
1996 SI WA 06:00:00 TS -19.67 115.11 176 152 O_____P_____O_ jtwc_sh SH251996 -19.70 115.10 125 4 -19.62 115.13 40 105 925 15 241 -19.70 115.10 TC 125 12 157
1996 SI WA 07:00:00 TS -19.87 115.21 105 925 bom 152 103 P_____O_____P_ SH251996 -19.91 115.21 125 4 -19.80 115.20 40 105 925 6.00 15 241 17 5 -19.91 115.21 TC 124 145 145 14 153
1996 SI WA 09:00:00 TS -20.32 115.45 98 64 P_____P_____P_ SH251996 -20.36 115.49 125 4 -20.24 115.38 40 105 925 15 241 -20.36 115.49 TC 122 16 152
1996 SI WA 10:00:00 TS -20.56 115.60 105 925 bom 64 0 P_____O_____P_ SH251996 -20.59 115.65 125 4 -20.50 115.50 40 105 925 6.00 15 241 13 3 -20.59 115.65 TC 121 220 220 18 150
1996 SI WA 12:00:00 TS -21.10 115.94 0 0 O_____P_____O_ jtwc_sh SH251996 -21.10 116.00 125 4 -21.09 115.81 40 105 928 15 241 -21.10 116.00 TC 120 19 149
1996 SI WA 13:00:00 TS -21.38 116.11 105 930 bom 0 0 P_____O_____P_ SH251996 -21.37 116.17 120 4 -21.40 116.00 40 105 930 6.00 15 241 13 -21.37 116.17 TC 116 145 145 20 149
1996 SI WA 15:00:00 TS -21.95 116.49 0 0 P_____P_____P_ SH251996 -21.93 116.54 112 3 -21.99 116.39 40 95 939 15 241 -21.93 116.54 TC 110 20 149
1996 SI WA 16:00:00 TS -22.24 116.68 90 945 bom 0 0 P_____O_____P_ SH251996 -22.22 116.72 108 3 -22.30 116.60 40 90 945 15 241 -22.22 116.72 TC 106 124 124 21 148
1996 SI WA 18:00:00 TS -22.86 117.09 0 0 O_____P_____O_ jtwc_sh SH251996 -22.80 117.10 100 3 -22.97 117.06 40 73 961 17 223 -22.80 117.10 TC 100 21 149
1996 SI WA 19:00:00 TS -23.15 117.28 65 970 bom 0 0 P_____O_____P_ SH251996 -23.08 117.28 95 2 -23.30 117.30 40 65 970 19 214 -23.08 117.28 TC 95 89 89 21 148
1996 SI WA 21:00:00 TS -23.73 117.67 0 0 P_____P_____P_ SH251996 -23.64 117.63 87 2 -23.91 117.76 40 61 973 19 196 -23.64 117.63 TC 87 20 148
1996 SI WA 22:00:00 TS -24.02 117.87 60 975 bom 0 0 P_____O_____P_ SH251996 -23.93 117.81 83 2 -24.20 118.00 30 60 975 19 187 -23.93 117.81 TC 83 84 84 21 146
1996 SI WA 1996-04-11 00:00:00 TS -24.60 118.30 0 0 O_____P_____O_ jtwc_sh SH251996 -24.50 118.20 75 1 -24.80 118.51 30 56 978 22 169 -24.50 118.20 TC 75 21 146
1996 SI WA 01:00:00 TS -24.89 118.52 55 980 bom 0 0 P_____O_____P_ SH251996 -24.79 118.38 69 1 -25.10 118.80 30 55 980 24 160 -24.79 118.38 TC 69 75 75 22 144
1996 SI WA 03:00:00 TS -25.48 119.00 0 0 P_____P_____P_ SH251996 -25.38 118.78 60 0 -25.70 119.45 30 55 980 24 160 -25.38 118.78 TC 60 23 143
1996 SI WA 04:00:00 TS -25.78 119.27 55 980 bom 0 0 P_____O_____P_ SH251996 -25.68 119.01 54 0 -26.00 119.80 30 55 980 24 160 -25.68 119.01 TC 54 75 75 25 138
1996 SI WA 06:00:00 TS -26.40 119.91 0 0 O_____P_____O_ jtwc_sh SH251996 -26.30 119.60 45 0 -26.60 120.52 30 48 983 24 142 -26.30 119.60 TC 45 26 136
1996 SI WA 07:00:00 TS -26.73 120.28 45 985 bom 0 0 P_____O_____P_ SH251996 -26.65 119.98 41 0 -26.90 120.90 30 45 985 24 133 -26.65 119.98 TC 41 64 64 30 132
1996 SI WA 09:00:00 TS -27.40 121.14 0 0 P_____P_____P_ SH251996 -27.35 120.86 35 0 -27.49 121.70 30 41 988 133 -27.35 120.86 TC 35 31 130
1996 SI WA 10:00:00 TS -27.73 121.60 40 990 bom 0 0 P_____O_____P_ SH251996 -27.69 121.36 31 -1 -27.80 122.10 30 40 990 133 -27.69 121.36 TC 31 55 55 32 127
1996 SI WA 12:00:00 TS -28.35 122.55 0 0 O_____P_____O_ jtwc_sh SH251996 -28.30 122.40 25 -1 -28.46 122.86 30 40 990 133 -28.30 122.40 TC 25 31 126
1996 SI WA 13:00:00 TS -28.62 123.02 40 990 bom 0 0 P_____O_____P_ SH251996 -28.53 122.88 24 -1 -28.80 123.30 30 40 990 133 -28.53 122.88 TC 24 55 55 30 119
1996 SI WA 15:00:00 TS -29.10 124.06 0 0 P_____P_____P_ SH251996 -28.91 123.89 22 -1 -29.47 124.41 30 40 990 115 -28.91 123.89 TC 22 31 117
1996 SI WA 16:00:00 TS -29.32 124.61 40 990 bom 0 0 P_____O_____P_ SH251996 -29.08 124.42 21 -1 -29.80 125.00 30 40 990 106 -29.08 124.42 TC 21 55 55 32 113
1996 SI WA 18:00:00 TS -29.73 125.78 0 0 O_____P_____O_ jtwc_sh SH251996 -29.40 125.60 20 -1 -30.40 126.13 30 36 993 106 -29.40 125.60 TC 20 34 112
1996 SI WA 19:00:00 TS -29.95 126.40 35 995 bom 0 0 P_____O_____P_ SH251996 -29.57 126.26 19 -1 -30.70 126.70 30 35 995 106 -29.57 126.26 TC 19 49 49 38 114
1996 SI WA 21:00:00 TS -30.50 127.77 0 0 P_____P_____P_ SH251996 -29.94 127.68 17 -1 -31.35 127.90 30 35 995 106 -29.94 127.68 TC 17 41 118
1996 SI WA 22:00:00 TS -30.91 128.47 35 995 bom 0 0 P_____O_____P_ SH251996 -30.13 128.44 16 -1 -31.70 128.50 30 35 995 106 -30.13 128.44 TC 16 49 49 43 127
1996 SI WA 1996-04-12 00:00:00 TS -31.79 129.76 22 22 O_____P_____O_ jtwc_sh SH251996 -30.50 130.00 15 -1 -32.44 129.64 30 31 995 106 -30.50 130.00 TC 15 48 142
1996 SI WA 01:00:00 NR -32.80 130.20 30 995 bom 133 144 ______O_______ SH251996 -1 -32.80 130.20 80 30 995 106 TC 45 45 43 142
1996 SI WA 03:00:00 NR -33.48 131.33 187 183 ______P_______ SH251996 -1 -33.48 131.33 80 30 995 106 TC 35 125
1996 SI WA 04:00:00 NR -33.80 131.90 30 995 bom 202 ______O_______ SH251996 -1 -33.80 131.90 80 30 995 106 TC 45 45 34 124